sensor_id;sensor_type;location;lat;lon;timestamp;P1;durP1;ratioP1;P2;durP2;ratioP2
59649;SDS011;46162;57.568;25.814;2022-10-23T00:01:28;11.18;;;5.07;;
59649;SDS011;46162;57.568;25.814;2022-10-23T00:03:58;12.93;;;5.38;;
59649;SDS011;46162;57.568;25.814;2022-10-23T00:06:30;13.73;;;4.87;;
59649;SDS011;46162;57.568;25.814;2022-10-23T00:09:00;13.45;;;4.93;;
59649;SDS011;46162;57.568;25.814;2022-10-23T00:11:30;12.70;;;5.47;;
59649;SDS011;46162;57.568;25.814;2022-10-23T00:14:00;12.27;;;5.15;;
59649;SDS011;46162;57.568;25.814;2022-10-23T00:16:30;13.38;;;5.45;;
59649;SDS011;46162;57.568;25.814;2022-10-23T00:19:00;11.43;;;4.80;;
59649;SDS011;46162;57.568;25.814;2022-10-23T00:21:30;16.73;;;5.22;;
59649;SDS011;46162;57.568;25.814;2022-10-23T00:23:58;15.07;;;5.50;;
59649;SDS011;46162;57.568;25.814;2022-10-23T00:26:27;13.43;;;4.40;;
59649;SDS011;46162;57.568;25.814;2022-10-23T00:28:56;15.02;;;5.85;;
59649;SDS011;46162;57.568;25.814;2022-10-23T00:31:25;12.57;;;5.60;;
59649;SDS011;46162;57.568;25.814;2022-10-23T00:33:53;13.40;;;6.18;;
59649;SDS011;46162;57.568;25.814;2022-10-23T00:36:22;14.90;;;6.85;;
59649;SDS011;46162;57.568;25.814;2022-10-23T00:38:53;14.52;;;6.57;;
59649;SDS011;46162;57.568;25.814;2022-10-23T00:43:56;20.02;;;6.43;;
59649;SDS011;46162;57.568;25.814;2022-10-23T00:46:31;12.45;;;6.18;;
59649;SDS011;46162;57.568;25.814;2022-10-23T00:49:00;15.05;;;7.18;;
59649;SDS011;46162;57.568;25.814;2022-10-23T00:51:30;11.82;;;6.65;;
59649;SDS011;46162;57.568;25.814;2022-10-23T00:54:05;11.48;;;6.63;;
59649;SDS011;46162;57.568;25.814;2022-10-23T00:56:52;11.00;;;5.68;;
59649;SDS011;46162;57.568;25.814;2022-10-23T00:59:24;17.10;;;6.22;;
59649;SDS011;46162;57.568;25.814;2022-10-23T01:01:53;11.40;;;5.50;;
59649;SDS011;46162;57.568;25.814;2022-10-23T01:04:22;10.77;;;4.57;;
59649;SDS011;46162;57.568;25.814;2022-10-23T01:06:53;12.07;;;4.57;;
59649;SDS011;46162;57.568;25.814;2022-10-23T01:09:32;11.48;;;4.70;;
59649;SDS011;46162;57.568;25.814;2022-10-23T01:12:07;13.05;;;4.93;;
59649;SDS011;46162;57.568;25.814;2022-10-23T01:14:43;11.32;;;5.90;;
59649;SDS011;46162;57.568;25.814;2022-10-23T01:17:28;10.27;;;4.72;;
59649;SDS011;46162;57.568;25.814;2022-10-23T01:20:10;11.98;;;5.38;;
59649;SDS011;46162;57.568;25.814;2022-10-23T01:22:52;13.82;;;5.82;;
59649;SDS011;46162;57.568;25.814;2022-10-23T01:25:38;14.43;;;5.78;;
59649;SDS011;46162;57.568;25.814;2022-10-23T01:28:22;11.00;;;5.80;;
59649;SDS011;46162;57.568;25.814;2022-10-23T01:30:56;11.68;;;5.60;;
59649;SDS011;46162;57.568;25.814;2022-10-23T01:33:33;10.48;;;5.20;;
59649;SDS011;46162;57.568;25.814;2022-10-23T01:36:07;9.43;;;4.70;;
59649;SDS011;46162;57.568;25.814;2022-10-23T01:38:41;10.63;;;4.80;;
59649;SDS011;46162;57.568;25.814;2022-10-23T01:41:23;13.35;;;5.32;;
59649;SDS011;46162;57.568;25.814;2022-10-23T01:43:58;13.23;;;5.18;;
59649;SDS011;46162;57.568;25.814;2022-10-23T01:46:34;11.25;;;4.75;;
59649;SDS011;46162;57.568;25.814;2022-10-23T01:49:07;10.50;;;4.15;;
59649;SDS011;46162;57.568;25.814;2022-10-23T01:51:40;9.93;;;4.22;;
59649;SDS011;46162;57.568;25.814;2022-10-23T01:54:12;10.45;;;4.68;;
59649;SDS011;46162;57.568;25.814;2022-10-23T01:56:44;10.35;;;4.55;;
59649;SDS011;46162;57.568;25.814;2022-10-23T01:59:20;11.50;;;4.70;;
59649;SDS011;46162;57.568;25.814;2022-10-23T02:01:52;10.48;;;4.55;;
59649;SDS011;46162;57.568;25.814;2022-10-23T02:04:24;11.63;;;4.97;;
59649;SDS011;46162;57.568;25.814;2022-10-23T02:06:56;9.85;;;4.47;;
59649;SDS011;46162;57.568;25.814;2022-10-23T02:09:25;9.55;;;4.28;;
59649;SDS011;46162;57.568;25.814;2022-10-23T02:11:56;9.85;;;4.60;;
59649;SDS011;46162;57.568;25.814;2022-10-23T02:14:34;11.13;;;4.00;;
59649;SDS011;46162;57.568;25.814;2022-10-23T02:17:08;8.93;;;3.78;;
59649;SDS011;46162;57.568;25.814;2022-10-23T02:19:45;8.32;;;3.80;;
59649;SDS011;46162;57.568;25.814;2022-10-23T02:22:18;7.90;;;3.70;;
59649;SDS011;46162;57.568;25.814;2022-10-23T02:24:51;8.85;;;4.15;;
59649;SDS011;46162;57.568;25.814;2022-10-23T02:27:24;12.43;;;4.45;;
59649;SDS011;46162;57.568;25.814;2022-10-23T02:30:00;12.15;;;4.10;;
59649;SDS011;46162;57.568;25.814;2022-10-23T02:32:33;11.35;;;4.30;;
59649;SDS011;46162;57.568;25.814;2022-10-23T02:35:05;7.75;;;3.63;;
59649;SDS011;46162;57.568;25.814;2022-10-23T02:37:34;8.38;;;3.45;;
59649;SDS011;46162;57.568;25.814;2022-10-23T02:40:04;9.27;;;3.60;;
59649;SDS011;46162;57.568;25.814;2022-10-23T02:42:42;9.93;;;3.55;;
59649;SDS011;46162;57.568;25.814;2022-10-23T02:45:20;9.15;;;3.83;;
59649;SDS011;46162;57.568;25.814;2022-10-23T02:47:58;9.63;;;3.80;;
59649;SDS011;46162;57.568;25.814;2022-10-23T02:50:32;9.75;;;3.90;;
59649;SDS011;46162;57.568;25.814;2022-10-23T02:53:10;9.57;;;4.03;;
59649;SDS011;46162;57.568;25.814;2022-10-23T02:55:45;8.95;;;3.95;;
59649;SDS011;46162;57.568;25.814;2022-10-23T02:58:23;11.55;;;3.70;;
59649;SDS011;46162;57.568;25.814;2022-10-23T03:00:58;8.10;;;3.80;;
59649;SDS011;46162;57.568;25.814;2022-10-23T03:03:32;8.23;;;4.30;;
59649;SDS011;46162;57.568;25.814;2022-10-23T03:06:05;11.07;;;4.70;;
59649;SDS011;46162;57.568;25.814;2022-10-23T03:08:41;11.70;;;4.70;;
59649;SDS011;46162;57.568;25.814;2022-10-23T03:11:11;8.85;;;4.10;;
59649;SDS011;46162;57.568;25.814;2022-10-23T03:13:40;9.75;;;4.43;;
59649;SDS011;46162;57.568;25.814;2022-10-23T03:16:10;8.80;;;3.72;;
59649;SDS011;46162;57.568;25.814;2022-10-23T03:18:39;10.32;;;3.85;;
59649;SDS011;46162;57.568;25.814;2022-10-23T03:21:08;9.05;;;3.85;;
59649;SDS011;46162;57.568;25.814;2022-10-23T03:23:37;7.35;;;3.50;;
59649;SDS011;46162;57.568;25.814;2022-10-23T03:26:06;7.07;;;3.42;;
59649;SDS011;46162;57.568;25.814;2022-10-23T03:28:40;7.82;;;3.67;;
59649;SDS011;46162;57.568;25.814;2022-10-23T03:31:11;8.70;;;4.15;;
59649;SDS011;46162;57.568;25.814;2022-10-23T03:33:40;8.75;;;3.53;;
59649;SDS011;46162;57.568;25.814;2022-10-23T03:36:11;13.00;;;3.73;;
59649;SDS011;46162;57.568;25.814;2022-10-23T03:38:42;8.55;;;3.53;;
59649;SDS011;46162;57.568;25.814;2022-10-23T03:41:11;7.57;;;3.67;;
59649;SDS011;46162;57.568;25.814;2022-10-23T03:43:39;9.43;;;3.70;;
59649;SDS011;46162;57.568;25.814;2022-10-23T03:46:08;10.93;;;4.05;;
59649;SDS011;46162;57.568;25.814;2022-10-23T03:48:39;10.60;;;4.13;;
59649;SDS011;46162;57.568;25.814;2022-10-23T03:51:08;8.43;;;3.55;;
59649;SDS011;46162;57.568;25.814;2022-10-23T03:53:39;8.25;;;3.28;;
59649;SDS011;46162;57.568;25.814;2022-10-23T03:56:08;8.60;;;4.40;;
59649;SDS011;46162;57.568;25.814;2022-10-23T03:58:38;12.32;;;5.07;;
59649;SDS011;46162;57.568;25.814;2022-10-23T04:01:07;14.82;;;7.60;;
59649;SDS011;46162;57.568;25.814;2022-10-23T04:03:37;20.42;;;10.02;;
59649;SDS011;46162;57.568;25.814;2022-10-23T04:06:06;18.15;;;9.52;;
59649;SDS011;46162;57.568;25.814;2022-10-23T04:08:36;27.20;;;11.05;;
59649;SDS011;46162;57.568;25.814;2022-10-23T04:11:11;20.48;;;11.93;;
59649;SDS011;46162;57.568;25.814;2022-10-23T04:13:44;24.00;;;12.35;;
59649;SDS011;46162;57.568;25.814;2022-10-23T04:16:13;24.60;;;12.45;;
59649;SDS011;46162;57.568;25.814;2022-10-23T04:18:45;23.90;;;12.77;;
59649;SDS011;46162;57.568;25.814;2022-10-23T04:21:14;24.42;;;12.88;;
59649;SDS011;46162;57.568;25.814;2022-10-23T04:23:43;24.33;;;12.75;;
59649;SDS011;46162;57.568;25.814;2022-10-23T04:26:14;23.35;;;11.98;;
59649;SDS011;46162;57.568;25.814;2022-10-23T04:28:43;21.35;;;11.35;;
59649;SDS011;46162;57.568;25.814;2022-10-23T04:31:12;21.05;;;12.05;;
59649;SDS011;46162;57.568;25.814;2022-10-23T04:33:41;24.88;;;12.38;;
59649;SDS011;46162;57.568;25.814;2022-10-23T04:36:29;25.48;;;14.15;;
59649;SDS011;46162;57.568;25.814;2022-10-23T04:39:07;27.52;;;15.43;;
59649;SDS011;46162;57.568;25.814;2022-10-23T04:41:35;28.88;;;14.95;;
59649;SDS011;46162;57.568;25.814;2022-10-23T04:44:05;26.85;;;14.68;;
59649;SDS011;46162;57.568;25.814;2022-10-23T04:46:37;29.00;;;13.80;;
59649;SDS011;46162;57.568;25.814;2022-10-23T04:49:07;27.27;;;15.68;;
59649;SDS011;46162;57.568;25.814;2022-10-23T04:51:56;22.67;;;13.10;;
59649;SDS011;46162;57.568;25.814;2022-10-23T04:54:43;29.17;;;13.55;;
59649;SDS011;46162;57.568;25.814;2022-10-23T04:57:39;30.88;;;14.73;;
59649;SDS011;46162;57.568;25.814;2022-10-23T05:00:11;27.75;;;14.05;;
59649;SDS011;46162;57.568;25.814;2022-10-23T05:02:49;27.20;;;14.65;;
59649;SDS011;46162;57.568;25.814;2022-10-23T05:05:19;31.33;;;15.95;;
59649;SDS011;46162;57.568;25.814;2022-10-23T05:07:59;31.08;;;15.48;;
59649;SDS011;46162;57.568;25.814;2022-10-23T05:10:54;27.48;;;14.80;;
59649;SDS011;46162;57.568;25.814;2022-10-23T05:13:24;32.35;;;16.70;;
59649;SDS011;46162;57.568;25.814;2022-10-23T05:15:53;28.35;;;16.08;;
59649;SDS011;46162;57.568;25.814;2022-10-23T05:18:24;28.52;;;15.48;;
59649;SDS011;46162;57.568;25.814;2022-10-23T05:20:58;29.98;;;17.20;;
59649;SDS011;46162;57.568;25.814;2022-10-23T05:23:34;34.40;;;17.55;;
59649;SDS011;46162;57.568;25.814;2022-10-23T05:26:05;34.50;;;18.10;;
59649;SDS011;46162;57.568;25.814;2022-10-23T05:28:35;32.08;;;18.95;;
59649;SDS011;46162;57.568;25.814;2022-10-23T05:31:04;36.40;;;18.77;;
59649;SDS011;46162;57.568;25.814;2022-10-23T05:33:36;36.20;;;18.67;;
59649;SDS011;46162;57.568;25.814;2022-10-23T05:36:09;31.88;;;18.17;;
59649;SDS011;46162;57.568;25.814;2022-10-23T05:38:43;31.05;;;17.25;;
59649;SDS011;46162;57.568;25.814;2022-10-23T05:41:15;34.83;;;18.00;;
59649;SDS011;46162;57.568;25.814;2022-10-23T05:43:45;29.23;;;17.73;;
59649;SDS011;46162;57.568;25.814;2022-10-23T05:46:32;30.88;;;17.15;;
59649;SDS011;46162;57.568;25.814;2022-10-23T05:49:19;28.95;;;16.23;;
59649;SDS011;46162;57.568;25.814;2022-10-23T05:52:09;30.25;;;16.05;;
59649;SDS011;46162;57.568;25.814;2022-10-23T05:54:57;31.95;;;16.45;;
59649;SDS011;46162;57.568;25.814;2022-10-23T05:57:48;27.10;;;15.65;;
59649;SDS011;46162;57.568;25.814;2022-10-23T06:00:27;30.38;;;16.33;;
59649;SDS011;46162;57.568;25.814;2022-10-23T06:03:15;25.10;;;16.48;;
59649;SDS011;46162;57.568;25.814;2022-10-23T06:05:47;32.13;;;17.58;;
59649;SDS011;46162;57.568;25.814;2022-10-23T06:08:20;30.77;;;17.73;;
59649;SDS011;46162;57.568;25.814;2022-10-23T06:10:52;29.95;;;16.98;;
59649;SDS011;46162;57.568;25.814;2022-10-23T06:15:50;31.73;;;17.27;;
59649;SDS011;46162;57.568;25.814;2022-10-23T06:20:54;30.17;;;17.92;;
59649;SDS011;46162;57.568;25.814;2022-10-23T06:23:25;35.97;;;18.73;;
59649;SDS011;46162;57.568;25.814;2022-10-23T06:26:18;31.30;;;19.17;;
59649;SDS011;46162;57.568;25.814;2022-10-23T06:28:57;38.78;;;20.33;;
59649;SDS011;46162;57.568;25.814;2022-10-23T06:31:26;41.50;;;21.20;;
59649;SDS011;46162;57.568;25.814;2022-10-23T06:33:56;42.78;;;21.13;;
59649;SDS011;46162;57.568;25.814;2022-10-23T06:36:28;41.60;;;24.80;;
59649;SDS011;46162;57.568;25.814;2022-10-23T06:39:10;44.30;;;23.77;;
59649;SDS011;46162;57.568;25.814;2022-10-23T06:41:59;47.30;;;24.52;;
59649;SDS011;46162;57.568;25.814;2022-10-23T06:44:54;40.88;;;23.15;;
59649;SDS011;46162;57.568;25.814;2022-10-23T06:47:48;45.10;;;24.70;;
59649;SDS011;46162;57.568;25.814;2022-10-23T06:50:32;51.63;;;27.40;;
59649;SDS011;46162;57.568;25.814;2022-10-23T06:53:05;52.67;;;26.05;;
59649;SDS011;46162;57.568;25.814;2022-10-23T06:55:37;55.58;;;28.08;;
59649;SDS011;46162;57.568;25.814;2022-10-23T06:58:09;47.55;;;25.83;;
59649;SDS011;46162;57.568;25.814;2022-10-23T07:00:53;44.13;;;23.85;;
59649;SDS011;46162;57.568;25.814;2022-10-23T07:03:23;47.40;;;26.20;;
59649;SDS011;46162;57.568;25.814;2022-10-23T07:05:51;53.80;;;27.67;;
59649;SDS011;46162;57.568;25.814;2022-10-23T07:08:20;59.40;;;29.73;;
59649;SDS011;46162;57.568;25.814;2022-10-23T07:10:52;69.13;;;28.00;;
59649;SDS011;46162;57.568;25.814;2022-10-23T07:13:22;56.95;;;28.45;;
59649;SDS011;46162;57.568;25.814;2022-10-23T07:16:18;58.00;;;28.70;;
59649;SDS011;46162;57.568;25.814;2022-10-23T07:18:52;55.05;;;28.45;;
59649;SDS011;46162;57.568;25.814;2022-10-23T07:21:29;59.65;;;29.27;;
59649;SDS011;46162;57.568;25.814;2022-10-23T07:26:48;54.88;;;27.20;;
59649;SDS011;46162;57.568;25.814;2022-10-23T07:29:24;65.90;;;27.33;;
59649;SDS011;46162;57.568;25.814;2022-10-23T07:31:53;56.33;;;27.75;;
59649;SDS011;46162;57.568;25.814;2022-10-23T07:34:49;54.75;;;26.77;;
59649;SDS011;46162;57.568;25.814;2022-10-23T07:37:23;59.95;;;27.67;;
59649;SDS011;46162;57.568;25.814;2022-10-23T07:39:52;63.33;;;29.00;;
59649;SDS011;46162;57.568;25.814;2022-10-23T07:42:22;56.95;;;27.95;;
59649;SDS011;46162;57.568;25.814;2022-10-23T07:44:53;64.18;;;28.52;;
59649;SDS011;46162;57.568;25.814;2022-10-23T07:47:22;59.20;;;27.33;;
59649;SDS011;46162;57.568;25.814;2022-10-23T07:49:51;61.92;;;27.67;;
59649;SDS011;46162;57.568;25.814;2022-10-23T07:52:20;55.63;;;26.00;;
59649;SDS011;46162;57.568;25.814;2022-10-23T07:55:08;53.78;;;26.70;;
59649;SDS011;46162;57.568;25.814;2022-10-23T07:57:44;60.90;;;28.88;;
59649;SDS011;46162;57.568;25.814;2022-10-23T08:00:30;59.80;;;27.08;;
59649;SDS011;46162;57.568;25.814;2022-10-23T08:03:10;64.57;;;29.55;;
59649;SDS011;46162;57.568;25.814;2022-10-23T08:05:40;64.22;;;28.98;;
59649;SDS011;46162;57.568;25.814;2022-10-23T08:08:09;59.75;;;28.85;;
59649;SDS011;46162;57.568;25.814;2022-10-23T08:10:40;60.28;;;27.83;;
59649;SDS011;46162;57.568;25.814;2022-10-23T08:13:13;60.38;;;27.92;;
59649;SDS011;46162;57.568;25.814;2022-10-23T08:15:58;65.88;;;28.83;;
59649;SDS011;46162;57.568;25.814;2022-10-23T08:18:53;59.58;;;29.27;;
59649;SDS011;46162;57.568;25.814;2022-10-23T08:21:22;61.20;;;28.33;;
59649;SDS011;46162;57.568;25.814;2022-10-23T08:23:53;69.93;;;30.58;;
59649;SDS011;46162;57.568;25.814;2022-10-23T08:26:23;65.90;;;32.33;;
59649;SDS011;46162;57.568;25.814;2022-10-23T08:28:53;66.43;;;30.08;;
59649;SDS011;46162;57.568;25.814;2022-10-23T08:31:23;72.60;;;31.98;;
59649;SDS011;46162;57.568;25.814;2022-10-23T08:34:12;74.72;;;32.30;;
59649;SDS011;46162;57.568;25.814;2022-10-23T08:36:43;84.63;;;34.53;;
59649;SDS011;46162;57.568;25.814;2022-10-23T08:39:13;83.00;;;35.97;;
59649;SDS011;46162;57.568;25.814;2022-10-23T08:41:56;73.40;;;33.08;;
59649;SDS011;46162;57.568;25.814;2022-10-23T08:44:27;72.72;;;32.92;;
59649;SDS011;46162;57.568;25.814;2022-10-23T08:47:01;72.38;;;31.75;;
59649;SDS011;46162;57.568;25.814;2022-10-23T08:49:48;79.22;;;35.53;;
59649;SDS011;46162;57.568;25.814;2022-10-23T08:52:20;81.68;;;34.67;;
59649;SDS011;46162;57.568;25.814;2022-10-23T08:54:58;90.22;;;36.97;;
59649;SDS011;46162;57.568;25.814;2022-10-23T08:57:34;77.07;;;35.10;;
59649;SDS011;46162;57.568;25.814;2022-10-23T09:00:11;83.38;;;33.08;;
59649;SDS011;46162;57.568;25.814;2022-10-23T09:02:43;159.85;;;41.38;;
59649;SDS011;46162;57.568;25.814;2022-10-23T09:05:15;67.90;;;30.15;;
59649;SDS011;46162;57.568;25.814;2022-10-23T09:07:49;60.20;;;28.77;;
59649;SDS011;46162;57.568;25.814;2022-10-23T09:10:33;64.50;;;27.92;;
59649;SDS011;46162;57.568;25.814;2022-10-23T09:13:20;105.30;;;31.08;;
59649;SDS011;46162;57.568;25.814;2022-10-23T09:16:03;69.43;;;29.98;;
59649;SDS011;46162;57.568;25.814;2022-10-23T09:18:44;74.22;;;31.08;;
59649;SDS011;46162;57.568;25.814;2022-10-23T09:21:15;86.50;;;32.40;;
59649;SDS011;46162;57.568;25.814;2022-10-23T09:23:44;81.32;;;31.50;;
59649;SDS011;46162;57.568;25.814;2022-10-23T09:26:14;87.68;;;32.55;;
59649;SDS011;46162;57.568;25.814;2022-10-23T09:28:45;102.05;;;33.40;;
59649;SDS011;46162;57.568;25.814;2022-10-23T09:31:16;101.05;;;33.35;;
59649;SDS011;46162;57.568;25.814;2022-10-23T09:33:59;102.68;;;34.17;;
59649;SDS011;46162;57.568;25.814;2022-10-23T09:36:34;123.18;;;37.53;;
59649;SDS011;46162;57.568;25.814;2022-10-23T09:39:02;112.15;;;35.33;;
59649;SDS011;46162;57.568;25.814;2022-10-23T09:41:33;115.40;;;35.58;;
59649;SDS011;46162;57.568;25.814;2022-10-23T09:44:10;122.28;;;36.20;;
59649;SDS011;46162;57.568;25.814;2022-10-23T09:46:47;107.68;;;32.63;;
59649;SDS011;46162;57.568;25.814;2022-10-23T09:49:24;130.82;;;36.03;;
59649;SDS011;46162;57.568;25.814;2022-10-23T09:52:00;133.70;;;36.70;;
59649;SDS011;46162;57.568;25.814;2022-10-23T09:54:32;117.18;;;36.72;;
59649;SDS011;46162;57.568;25.814;2022-10-23T09:57:03;126.20;;;37.13;;
59649;SDS011;46162;57.568;25.814;2022-10-23T09:59:49;127.30;;;38.28;;
59649;SDS011;46162;57.568;25.814;2022-10-23T10:02:23;127.25;;;39.20;;
59649;SDS011;46162;57.568;25.814;2022-10-23T10:05:21;140.63;;;40.17;;
59649;SDS011;46162;57.568;25.814;2022-10-23T10:07:54;134.63;;;38.75;;
59649;SDS011;46162;57.568;25.814;2022-10-23T10:10:27;140.77;;;39.33;;
59649;SDS011;46162;57.568;25.814;2022-10-23T10:13:05;127.90;;;38.60;;
59649;SDS011;46162;57.568;25.814;2022-10-23T10:15:49;130.43;;;36.72;;
59649;SDS011;46162;57.568;25.814;2022-10-23T10:18:23;130.18;;;39.35;;
59649;SDS011;46162;57.568;25.814;2022-10-23T10:21:06;132.15;;;38.92;;
59649;SDS011;46162;57.568;25.814;2022-10-23T10:23:46;137.40;;;37.85;;
59649;SDS011;46162;57.568;25.814;2022-10-23T10:26:24;127.97;;;36.85;;
59649;SDS011;46162;57.568;25.814;2022-10-23T10:29:04;147.13;;;38.13;;
59649;SDS011;46162;57.568;25.814;2022-10-23T10:31:44;134.23;;;39.95;;
59649;SDS011;46162;57.568;25.814;2022-10-23T10:34:26;138.15;;;40.47;;
59649;SDS011;46162;57.568;25.814;2022-10-23T10:37:03;135.38;;;39.40;;
59649;SDS011;46162;57.568;25.814;2022-10-23T10:39:42;137.60;;;39.45;;
59649;SDS011;46162;57.568;25.814;2022-10-23T10:42:26;147.25;;;42.53;;
59649;SDS011;46162;57.568;25.814;2022-10-23T10:45:15;136.43;;;40.05;;
59649;SDS011;46162;57.568;25.814;2022-10-23T10:47:51;135.60;;;40.28;;
59649;SDS011;46162;57.568;25.814;2022-10-23T10:50:42;133.48;;;40.90;;
59649;SDS011;46162;57.568;25.814;2022-10-23T10:53:23;146.48;;;60.30;;
59649;SDS011;46162;57.568;25.814;2022-10-23T10:58:34;127.13;;;37.27;;
59649;SDS011;46162;57.568;25.814;2022-10-23T11:01:10;125.85;;;39.35;;
59649;SDS011;46162;57.568;25.814;2022-10-23T11:03:46;134.93;;;41.17;;
59649;SDS011;46162;57.568;25.814;2022-10-23T11:06:19;119.32;;;39.90;;
59649;SDS011;46162;57.568;25.814;2022-10-23T11:08:53;137.90;;;41.65;;
59649;SDS011;46162;57.568;25.814;2022-10-23T11:11:32;130.38;;;40.35;;
59649;SDS011;46162;57.568;25.814;2022-10-23T11:14:11;137.27;;;41.88;;
59649;SDS011;46162;57.568;25.814;2022-10-23T11:16:47;114.85;;;41.00;;
59649;SDS011;46162;57.568;25.814;2022-10-23T11:19:19;115.75;;;40.15;;
59649;SDS011;46162;57.568;25.814;2022-10-23T11:21:53;127.43;;;40.30;;
59649;SDS011;46162;57.568;25.814;2022-10-23T11:24:34;120.75;;;39.70;;
59649;SDS011;46162;57.568;25.814;2022-10-23T11:27:30;124.45;;;40.67;;
59649;SDS011;46162;57.568;25.814;2022-10-23T11:30:18;128.20;;;41.97;;
59649;SDS011;46162;57.568;25.814;2022-10-23T11:33:07;132.82;;;42.60;;
59649;SDS011;46162;57.568;25.814;2022-10-23T11:36:05;133.48;;;41.80;;
59649;SDS011;46162;57.568;25.814;2022-10-23T11:38:44;125.30;;;40.03;;
59649;SDS011;46162;57.568;25.814;2022-10-23T11:44:00;117.25;;;37.03;;
59649;SDS011;46162;57.568;25.814;2022-10-23T11:46:31;130.30;;;40.22;;
59649;SDS011;46162;57.568;25.814;2022-10-23T11:51:33;113.63;;;35.92;;
59649;SDS011;46162;57.568;25.814;2022-10-23T11:56:54;135.00;;;39.25;;
59649;SDS011;46162;57.568;25.814;2022-10-23T11:59:39;130.38;;;38.90;;
59649;SDS011;46162;57.568;25.814;2022-10-23T12:02:27;132.02;;;40.35;;
59649;SDS011;46162;57.568;25.814;2022-10-23T12:05:00;113.82;;;37.92;;
59649;SDS011;46162;57.568;25.814;2022-10-23T12:07:32;128.18;;;39.65;;
59649;SDS011;46162;57.568;25.814;2022-10-23T12:10:04;115.75;;;38.83;;
59649;SDS011;46162;57.568;25.814;2022-10-23T12:12:36;133.80;;;40.58;;
59649;SDS011;46162;57.568;25.814;2022-10-23T12:15:07;128.50;;;40.25;;
59649;SDS011;46162;57.568;25.814;2022-10-23T12:17:47;133.65;;;42.55;;
59649;SDS011;46162;57.568;25.814;2022-10-23T12:20:35;124.00;;;41.78;;
59649;SDS011;46162;57.568;25.814;2022-10-23T12:23:22;107.35;;;39.05;;
59649;SDS011;46162;57.568;25.814;2022-10-23T12:26:09;108.15;;;38.38;;
59649;SDS011;46162;57.568;25.814;2022-10-23T12:28:53;107.40;;;37.67;;
59649;SDS011;46162;57.568;25.814;2022-10-23T12:31:32;85.82;;;36.22;;
59649;SDS011;46162;57.568;25.814;2022-10-23T12:34:17;104.25;;;38.15;;
59649;SDS011;46162;57.568;25.814;2022-10-23T12:37:02;107.85;;;39.80;;
59649;SDS011;46162;57.568;25.814;2022-10-23T12:39:51;103.90;;;39.13;;
59649;SDS011;46162;57.568;25.814;2022-10-23T12:42:22;102.38;;;38.53;;
59649;SDS011;46162;57.568;25.814;2022-10-23T12:45:00;96.88;;;40.53;;
59649;SDS011;46162;57.568;25.814;2022-10-23T12:47:33;100.57;;;40.22;;
59649;SDS011;46162;57.568;25.814;2022-10-23T12:50:15;98.90;;;39.88;;
59649;SDS011;46162;57.568;25.814;2022-10-23T12:52:52;100.50;;;41.25;;
59649;SDS011;46162;57.568;25.814;2022-10-23T12:55:22;90.45;;;38.83;;
59649;SDS011;46162;57.568;25.814;2022-10-23T12:57:54;98.35;;;39.88;;
59649;SDS011;46162;57.568;25.814;2022-10-23T13:00:24;93.45;;;39.97;;
59649;SDS011;46162;57.568;25.814;2022-10-23T13:02:57;98.85;;;37.83;;
59649;SDS011;46162;57.568;25.814;2022-10-23T13:05:26;95.20;;;39.28;;
59649;SDS011;46162;57.568;25.814;2022-10-23T13:07:56;86.13;;;36.87;;
59649;SDS011;46162;57.568;25.814;2022-10-23T13:10:40;80.00;;;33.75;;
59649;SDS011;46162;57.568;25.814;2022-10-23T13:13:10;80.13;;;35.45;;
59649;SDS011;46162;57.568;25.814;2022-10-23T13:15:43;81.50;;;34.70;;
59649;SDS011;46162;57.568;25.814;2022-10-23T13:18:13;74.68;;;34.50;;
59649;SDS011;46162;57.568;25.814;2022-10-23T13:20:53;57.17;;;27.38;;
59649;SDS011;46162;57.568;25.814;2022-10-23T13:23:26;49.45;;;24.35;;
59649;SDS011;46162;57.568;25.814;2022-10-23T13:25:58;45.22;;;23.48;;
59649;SDS011;46162;57.568;25.814;2022-10-23T13:28:28;51.83;;;25.70;;
59649;SDS011;46162;57.568;25.814;2022-10-23T13:31:02;44.33;;;24.65;;
59649;SDS011;46162;57.568;25.814;2022-10-23T13:36:33;30.40;;;16.73;;
59649;SDS011;46162;57.568;25.814;2022-10-23T13:39:11;27.55;;;15.05;;
59649;SDS011;46162;57.568;25.814;2022-10-23T13:41:42;30.50;;;16.10;;
59649;SDS011;46162;57.568;25.814;2022-10-23T13:44:13;26.98;;;16.38;;
59649;SDS011;46162;57.568;25.814;2022-10-23T13:46:44;28.38;;;15.75;;
59649;SDS011;46162;57.568;25.814;2022-10-23T13:49:14;27.92;;;15.20;;
59649;SDS011;46162;57.568;25.814;2022-10-23T13:51:44;26.75;;;14.93;;
59649;SDS011;46162;57.568;25.814;2022-10-23T13:54:17;27.88;;;15.43;;
59649;SDS011;46162;57.568;25.814;2022-10-23T13:59:16;30.77;;;15.63;;
59649;SDS011;46162;57.568;25.814;2022-10-23T14:01:47;27.92;;;16.23;;
59649;SDS011;46162;57.568;25.814;2022-10-23T14:04:16;23.83;;;15.18;;
59649;SDS011;46162;57.568;25.814;2022-10-23T14:06:46;25.23;;;14.85;;
59649;SDS011;46162;57.568;25.814;2022-10-23T14:09:15;21.10;;;13.70;;
59649;SDS011;46162;57.568;25.814;2022-10-23T14:11:45;19.58;;;11.20;;
59649;SDS011;46162;57.568;25.814;2022-10-23T14:14:14;20.23;;;11.85;;
59649;SDS011;46162;57.568;25.814;2022-10-23T14:16:43;20.13;;;11.38;;
59649;SDS011;46162;57.568;25.814;2022-10-23T14:19:13;18.77;;;10.85;;
59649;SDS011;46162;57.568;25.814;2022-10-23T14:21:42;20.20;;;11.23;;
59649;SDS011;46162;57.568;25.814;2022-10-23T14:24:10;13.02;;;9.55;;
59649;SDS011;46162;57.568;25.814;2022-10-23T14:26:40;13.45;;;8.63;;
59649;SDS011;46162;57.568;25.814;2022-10-23T14:29:09;13.55;;;9.02;;
59649;SDS011;46162;57.568;25.814;2022-10-23T14:31:48;13.57;;;9.23;;
59649;SDS011;46162;57.568;25.814;2022-10-23T14:34:19;12.25;;;8.57;;
59649;SDS011;46162;57.568;25.814;2022-10-23T14:39:33;14.75;;;8.07;;
59649;SDS011;46162;57.568;25.814;2022-10-23T14:42:02;12.82;;;7.55;;
59649;SDS011;46162;57.568;25.814;2022-10-23T14:44:31;10.90;;;7.13;;
59649;SDS011;46162;57.568;25.814;2022-10-23T14:47:00;9.15;;;5.75;;
59649;SDS011;46162;57.568;25.814;2022-10-23T14:49:30;9.38;;;6.00;;
59649;SDS011;46162;57.568;25.814;2022-10-23T14:52:01;10.27;;;6.40;;
59649;SDS011;46162;57.568;25.814;2022-10-23T14:54:30;13.32;;;7.05;;
59649;SDS011;46162;57.568;25.814;2022-10-23T14:57:01;10.90;;;6.85;;
59649;SDS011;46162;57.568;25.814;2022-10-23T14:59:30;9.07;;;5.95;;
59649;SDS011;46162;57.568;25.814;2022-10-23T15:01:58;10.48;;;6.55;;
59649;SDS011;46162;57.568;25.814;2022-10-23T15:04:27;11.10;;;6.70;;
59649;SDS011;46162;57.568;25.814;2022-10-23T15:06:57;14.55;;;7.40;;
59649;SDS011;46162;57.568;25.814;2022-10-23T15:09:26;10.93;;;7.05;;
59649;SDS011;46162;57.568;25.814;2022-10-23T15:11:55;12.98;;;7.78;;
59649;SDS011;46162;57.568;25.814;2022-10-23T15:14:23;12.63;;;7.90;;
59649;SDS011;46162;57.568;25.814;2022-10-23T15:16:52;12.55;;;7.65;;
59649;SDS011;46162;57.568;25.814;2022-10-23T15:19:21;11.95;;;7.55;;
59649;SDS011;46162;57.568;25.814;2022-10-23T15:21:49;10.70;;;6.63;;
59649;SDS011;46162;57.568;25.814;2022-10-23T15:24:20;9.82;;;5.80;;